sensor_id;sensor_type;location;lat;lon;timestamp;P1;durP1;ratioP1;P2;durP2;ratioP2
8312;SDS011;4194;43.408;24.626;2024-03-17T00:01:36;26.10;;;17.30;;
8312;SDS011;4194;43.408;24.626;2024-03-17T00:04:03;26.73;;;18.23;;
8312;SDS011;4194;43.408;24.626;2024-03-17T00:06:29;26.80;;;17.63;;
8312;SDS011;4194;43.408;24.626;2024-03-17T00:08:58;27.13;;;17.60;;
8312;SDS011;4194;43.408;24.626;2024-03-17T00:11:24;27.83;;;19.03;;
8312;SDS011;4194;43.408;24.626;2024-03-17T00:13:50;26.73;;;17.40;;
8312;SDS011;4194;43.408;24.626;2024-03-17T00:16:16;23.93;;;15.70;;
8312;SDS011;4194;43.408;24.626;2024-03-17T00:18:44;20.50;;;13.37;;
8312;SDS011;4194;43.408;24.626;2024-03-17T00:21:13;22.20;;;13.67;;
8312;SDS011;4194;43.408;24.626;2024-03-17T00:23:39;20.07;;;14.47;;
8312;SDS011;4194;43.408;24.626;2024-03-17T00:26:05;21.27;;;13.57;;
8312;SDS011;4194;43.408;24.626;2024-03-17T00:28:30;25.10;;;15.90;;
8312;SDS011;4194;43.408;24.626;2024-03-17T00:30:56;29.73;;;17.80;;
8312;SDS011;4194;43.408;24.626;2024-03-17T00:33:22;24.13;;;15.57;;
8312;SDS011;4194;43.408;24.626;2024-03-17T00:35:49;22.90;;;14.33;;
8312;SDS011;4194;43.408;24.626;2024-03-17T00:38:15;23.30;;;14.97;;
8312;SDS011;4194;43.408;24.626;2024-03-17T00:40:40;22.13;;;15.53;;
8312;SDS011;4194;43.408;24.626;2024-03-17T00:43:06;23.73;;;14.87;;
8312;SDS011;4194;43.408;24.626;2024-03-17T00:45:32;23.77;;;16.53;;
8312;SDS011;4194;43.408;24.626;2024-03-17T00:47:58;22.47;;;14.97;;
8312;SDS011;4194;43.408;24.626;2024-03-17T00:50:24;24.30;;;15.43;;
8312;SDS011;4194;43.408;24.626;2024-03-17T00:52:49;26.13;;;15.03;;
8312;SDS011;4194;43.408;24.626;2024-03-17T00:55:15;23.43;;;15.27;;
8312;SDS011;4194;43.408;24.626;2024-03-17T00:57:41;26.37;;;15.93;;
8312;SDS011;4194;43.408;24.626;2024-03-17T01:00:07;28.93;;;18.50;;
8312;SDS011;4194;43.408;24.626;2024-03-17T01:02:40;25.53;;;16.67;;
8312;SDS011;4194;43.408;24.626;2024-03-17T01:05:06;22.13;;;15.83;;
8312;SDS011;4194;43.408;24.626;2024-03-17T01:07:32;25.77;;;15.73;;
8312;SDS011;4194;43.408;24.626;2024-03-17T01:09:59;21.00;;;14.20;;
8312;SDS011;4194;43.408;24.626;2024-03-17T01:12:25;21.27;;;13.80;;
8312;SDS011;4194;43.408;24.626;2024-03-17T01:14:51;24.27;;;14.73;;
8312;SDS011;4194;43.408;24.626;2024-03-17T01:17:17;20.93;;;14.10;;
8312;SDS011;4194;43.408;24.626;2024-03-17T01:19:44;20.30;;;12.63;;
8312;SDS011;4194;43.408;24.626;2024-03-17T01:22:10;20.10;;;13.83;;
8312;SDS011;4194;43.408;24.626;2024-03-17T01:24:36;21.73;;;14.43;;
8312;SDS011;4194;43.408;24.626;2024-03-17T01:27:04;24.17;;;15.27;;
8312;SDS011;4194;43.408;24.626;2024-03-17T01:29:30;20.87;;;14.77;;
8312;SDS011;4194;43.408;24.626;2024-03-17T01:31:56;25.23;;;15.03;;
8312;SDS011;4194;43.408;24.626;2024-03-17T01:34:21;24.13;;;14.70;;
8312;SDS011;4194;43.408;24.626;2024-03-17T01:36:47;21.30;;;14.53;;
8312;SDS011;4194;43.408;24.626;2024-03-17T01:39:13;21.93;;;15.53;;
8312;SDS011;4194;43.408;24.626;2024-03-17T01:41:40;24.33;;;16.27;;
8312;SDS011;4194;43.408;24.626;2024-03-17T01:44:06;20.30;;;14.93;;
8312;SDS011;4194;43.408;24.626;2024-03-17T01:46:32;23.97;;;15.73;;
8312;SDS011;4194;43.408;24.626;2024-03-17T01:48:58;22.33;;;15.47;;
8312;SDS011;4194;43.408;24.626;2024-03-17T01:51:24;23.67;;;15.93;;
8312;SDS011;4194;43.408;24.626;2024-03-17T01:53:50;22.40;;;15.10;;
8312;SDS011;4194;43.408;24.626;2024-03-17T01:56:16;22.00;;;14.60;;
8312;SDS011;4194;43.408;24.626;2024-03-17T01:58:45;21.57;;;14.00;;
8312;SDS011;4194;43.408;24.626;2024-03-17T02:01:11;21.23;;;14.40;;
8312;SDS011;4194;43.408;24.626;2024-03-17T02:03:40;20.37;;;14.47;;
8312;SDS011;4194;43.408;24.626;2024-03-17T02:06:07;23.07;;;14.53;;
8312;SDS011;4194;43.408;24.626;2024-03-17T02:08:49;20.03;;;13.70;;
8312;SDS011;4194;43.408;24.626;2024-03-17T02:11:23;23.07;;;14.47;;
8312;SDS011;4194;43.408;24.626;2024-03-17T02:13:57;23.73;;;14.80;;
8312;SDS011;4194;43.408;24.626;2024-03-17T02:16:24;21.67;;;14.57;;
8312;SDS011;4194;43.408;24.626;2024-03-17T02:18:53;22.47;;;14.63;;
8312;SDS011;4194;43.408;24.626;2024-03-17T02:21:20;23.27;;;14.63;;
8312;SDS011;4194;43.408;24.626;2024-03-17T02:23:51;22.40;;;14.53;;
8312;SDS011;4194;43.408;24.626;2024-03-17T02:26:16;20.83;;;13.90;;
8312;SDS011;4194;43.408;24.626;2024-03-17T02:28:44;19.03;;;13.67;;
8312;SDS011;4194;43.408;24.626;2024-03-17T02:31:12;20.93;;;13.53;;
8312;SDS011;4194;43.408;24.626;2024-03-17T02:33:40;21.77;;;15.07;;
8312;SDS011;4194;43.408;24.626;2024-03-17T02:36:06;24.73;;;16.67;;
8312;SDS011;4194;43.408;24.626;2024-03-17T02:38:35;20.73;;;13.27;;
8312;SDS011;4194;43.408;24.626;2024-03-17T02:41:19;19.93;;;13.63;;
8312;SDS011;4194;43.408;24.626;2024-03-17T02:43:45;22.50;;;14.30;;
8312;SDS011;4194;43.408;24.626;2024-03-17T02:46:12;22.33;;;15.47;;
8312;SDS011;4194;43.408;24.626;2024-03-17T02:48:39;37.03;;;24.60;;
8312;SDS011;4194;43.408;24.626;2024-03-17T02:51:12;37.70;;;25.20;;
8312;SDS011;4194;43.408;24.626;2024-03-17T02:53:45;35.80;;;25.70;;
8312;SDS011;4194;43.408;24.626;2024-03-17T02:56:11;30.20;;;19.60;;
8312;SDS011;4194;43.408;24.626;2024-03-17T02:58:38;26.37;;;18.33;;
8312;SDS011;4194;43.408;24.626;2024-03-17T03:01:05;24.53;;;15.70;;
8312;SDS011;4194;43.408;24.626;2024-03-17T03:03:32;20.50;;;13.80;;
8312;SDS011;4194;43.408;24.626;2024-03-17T03:05:58;25.90;;;13.87;;
8312;SDS011;4194;43.408;24.626;2024-03-17T03:08:26;19.77;;;13.57;;
8312;SDS011;4194;43.408;24.626;2024-03-17T03:10:52;21.80;;;14.17;;
8312;SDS011;4194;43.408;24.626;2024-03-17T03:13:17;20.37;;;13.67;;
8312;SDS011;4194;43.408;24.626;2024-03-17T03:15:45;22.50;;;14.43;;
8312;SDS011;4194;43.408;24.626;2024-03-17T03:18:12;24.33;;;15.33;;
8312;SDS011;4194;43.408;24.626;2024-03-17T03:20:38;22.43;;;15.77;;
8312;SDS011;4194;43.408;24.626;2024-03-17T03:23:04;22.23;;;14.90;;
8312;SDS011;4194;43.408;24.626;2024-03-17T03:25:30;23.60;;;15.83;;
8312;SDS011;4194;43.408;24.626;2024-03-17T03:27:56;25.80;;;16.30;;
8312;SDS011;4194;43.408;24.626;2024-03-17T03:30:23;26.47;;;16.20;;
8312;SDS011;4194;43.408;24.626;2024-03-17T03:32:49;27.10;;;17.13;;
8312;SDS011;4194;43.408;24.626;2024-03-17T03:35:15;20.90;;;14.77;;
8312;SDS011;4194;43.408;24.626;2024-03-17T03:37:41;21.00;;;14.60;;
8312;SDS011;4194;43.408;24.626;2024-03-17T03:40:07;22.43;;;13.73;;
8312;SDS011;4194;43.408;24.626;2024-03-17T03:42:43;27.53;;;14.40;;
8312;SDS011;4194;43.408;24.626;2024-03-17T03:45:09;22.43;;;14.27;;
8312;SDS011;4194;43.408;24.626;2024-03-17T03:47:41;22.90;;;14.33;;
8312;SDS011;4194;43.408;24.626;2024-03-17T03:50:08;20.93;;;13.73;;
8312;SDS011;4194;43.408;24.626;2024-03-17T03:52:35;23.73;;;13.20;;
8312;SDS011;4194;43.408;24.626;2024-03-17T03:55:01;20.60;;;13.80;;
8312;SDS011;4194;43.408;24.626;2024-03-17T03:57:29;24.17;;;14.80;;
8312;SDS011;4194;43.408;24.626;2024-03-17T03:59:55;25.40;;;14.53;;
8312;SDS011;4194;43.408;24.626;2024-03-17T04:02:21;23.67;;;15.47;;
8312;SDS011;4194;43.408;24.626;2024-03-17T04:04:48;28.03;;;16.83;;
8312;SDS011;4194;43.408;24.626;2024-03-17T04:07:13;25.00;;;15.30;;
8312;SDS011;4194;43.408;24.626;2024-03-17T04:09:39;32.40;;;16.77;;
8312;SDS011;4194;43.408;24.626;2024-03-17T04:12:05;36.53;;;19.47;;
8312;SDS011;4194;43.408;24.626;2024-03-17T04:14:30;43.50;;;23.07;;
8312;SDS011;4194;43.408;24.626;2024-03-17T04:16:56;40.83;;;23.60;;
8312;SDS011;4194;43.408;24.626;2024-03-17T04:19:23;35.83;;;22.60;;
8312;SDS011;4194;43.408;24.626;2024-03-17T04:21:49;35.70;;;22.03;;
8312;SDS011;4194;43.408;24.626;2024-03-17T04:24:14;34.50;;;21.03;;
8312;SDS011;4194;43.408;24.626;2024-03-17T04:26:40;35.43;;;21.80;;
8312;SDS011;4194;43.408;24.626;2024-03-17T04:29:05;36.47;;;24.13;;
8312;SDS011;4194;43.408;24.626;2024-03-17T04:31:31;33.93;;;21.97;;
8312;SDS011;4194;43.408;24.626;2024-03-17T04:33:57;34.13;;;22.37;;
8312;SDS011;4194;43.408;24.626;2024-03-17T04:36:23;32.50;;;20.60;;
8312;SDS011;4194;43.408;24.626;2024-03-17T04:38:49;35.60;;;20.60;;
8312;SDS011;4194;43.408;24.626;2024-03-17T04:41:16;32.03;;;20.60;;
8312;SDS011;4194;43.408;24.626;2024-03-17T04:43:43;34.33;;;20.17;;
8312;SDS011;4194;43.408;24.626;2024-03-17T04:46:09;34.80;;;19.57;;
8312;SDS011;4194;43.408;24.626;2024-03-17T04:48:37;32.30;;;20.97;;
8312;SDS011;4194;43.408;24.626;2024-03-17T04:51:02;36.80;;;18.87;;
8312;SDS011;4194;43.408;24.626;2024-03-17T04:53:29;31.93;;;16.30;;
8312;SDS011;4194;43.408;24.626;2024-03-17T04:56:01;28.17;;;16.93;;
8312;SDS011;4194;43.408;24.626;2024-03-17T04:58:29;25.07;;;15.57;;
8312;SDS011;4194;43.408;24.626;2024-03-17T05:01:02;25.07;;;15.77;;
8312;SDS011;4194;43.408;24.626;2024-03-17T05:03:32;25.90;;;16.53;;
8312;SDS011;4194;43.408;24.626;2024-03-17T05:06:01;31.40;;;17.50;;
8312;SDS011;4194;43.408;24.626;2024-03-17T05:08:28;30.37;;;16.60;;
8312;SDS011;4194;43.408;24.626;2024-03-17T05:13:24;34.57;;;20.57;;
8312;SDS011;4194;43.408;24.626;2024-03-17T05:15:50;33.93;;;19.97;;
8312;SDS011;4194;43.408;24.626;2024-03-17T05:18:16;39.73;;;21.27;;
8312;SDS011;4194;43.408;24.626;2024-03-17T05:20:42;37.67;;;21.40;;
8312;SDS011;4194;43.408;24.626;2024-03-17T05:23:07;35.53;;;20.57;;
8312;SDS011;4194;43.408;24.626;2024-03-17T05:25:33;33.17;;;20.27;;
8312;SDS011;4194;43.408;24.626;2024-03-17T05:28:02;31.53;;;19.33;;
8312;SDS011;4194;43.408;24.626;2024-03-17T05:30:27;31.17;;;19.20;;
8312;SDS011;4194;43.408;24.626;2024-03-17T05:32:54;32.00;;;19.53;;
8312;SDS011;4194;43.408;24.626;2024-03-17T05:35:19;32.43;;;20.83;;
8312;SDS011;4194;43.408;24.626;2024-03-17T05:37:45;28.73;;;19.53;;
8312;SDS011;4194;43.408;24.626;2024-03-17T05:40:11;35.40;;;20.93;;
8312;SDS011;4194;43.408;24.626;2024-03-17T05:42:42;34.50;;;19.50;;
8312;SDS011;4194;43.408;24.626;2024-03-17T05:45:09;28.57;;;17.90;;
8312;SDS011;4194;43.408;24.626;2024-03-17T05:47:38;33.93;;;20.90;;
8312;SDS011;4194;43.408;24.626;2024-03-17T05:50:06;33.57;;;19.77;;
8312;SDS011;4194;43.408;24.626;2024-03-17T05:52:32;31.97;;;18.87;;
8312;SDS011;4194;43.408;24.626;2024-03-17T05:54:57;28.03;;;17.97;;
8312;SDS011;4194;43.408;24.626;2024-03-17T05:57:23;30.80;;;18.20;;
8312;SDS011;4194;43.408;24.626;2024-03-17T05:59:49;32.23;;;19.13;;
8312;SDS011;4194;43.408;24.626;2024-03-17T06:02:15;41.50;;;26.50;;
8312;SDS011;4194;43.408;24.626;2024-03-17T06:04:41;44.40;;;30.90;;
8312;SDS011;4194;43.408;24.626;2024-03-17T06:07:07;34.87;;;24.67;;
8312;SDS011;4194;43.408;24.626;2024-03-17T06:09:32;37.10;;;22.67;;
8312;SDS011;4194;43.408;24.626;2024-03-17T06:11:58;33.23;;;19.17;;
8312;SDS011;4194;43.408;24.626;2024-03-17T06:14:24;28.63;;;18.97;;
8312;SDS011;4194;43.408;24.626;2024-03-17T06:16:49;34.80;;;19.53;;
8312;SDS011;4194;43.408;24.626;2024-03-17T06:19:15;24.90;;;17.80;;
8312;SDS011;4194;43.408;24.626;2024-03-17T06:21:41;27.03;;;17.73;;
8312;SDS011;4194;43.408;24.626;2024-03-17T06:24:07;26.77;;;17.27;;
8312;SDS011;4194;43.408;24.626;2024-03-17T06:26:32;32.27;;;18.70;;
8312;SDS011;4194;43.408;24.626;2024-03-17T06:29:02;37.40;;;19.83;;
8312;SDS011;4194;43.408;24.626;2024-03-17T06:31:27;26.00;;;17.87;;
8312;SDS011;4194;43.408;24.626;2024-03-17T06:33:53;30.47;;;19.70;;
8312;SDS011;4194;43.408;24.626;2024-03-17T06:36:19;27.23;;;18.57;;
8312;SDS011;4194;43.408;24.626;2024-03-17T06:38:44;27.40;;;18.53;;
8312;SDS011;4194;43.408;24.626;2024-03-17T06:41:10;25.53;;;18.13;;
8312;SDS011;4194;43.408;24.626;2024-03-17T06:43:37;36.73;;;23.70;;
8312;SDS011;4194;43.408;24.626;2024-03-17T06:46:04;44.10;;;31.23;;
8312;SDS011;4194;43.408;24.626;2024-03-17T06:48:30;32.03;;;22.57;;
8312;SDS011;4194;43.408;24.626;2024-03-17T06:50:55;54.10;;;34.20;;
8312;SDS011;4194;43.408;24.626;2024-03-17T06:53:22;36.10;;;23.57;;
8312;SDS011;4194;43.408;24.626;2024-03-17T06:55:58;26.30;;;19.17;;
8312;SDS011;4194;43.408;24.626;2024-03-17T06:58:25;27.87;;;18.43;;
8312;SDS011;4194;43.408;24.626;2024-03-17T07:00:59;27.93;;;18.97;;
8312;SDS011;4194;43.408;24.626;2024-03-17T07:03:26;24.93;;;17.80;;
8312;SDS011;4194;43.408;24.626;2024-03-17T07:05:56;25.00;;;17.13;;
8312;SDS011;4194;43.408;24.626;2024-03-17T07:08:23;24.77;;;17.17;;
8312;SDS011;4194;43.408;24.626;2024-03-17T07:10:56;28.10;;;16.17;;
8312;SDS011;4194;43.408;24.626;2024-03-17T07:13:32;21.27;;;15.00;;
8312;SDS011;4194;43.408;24.626;2024-03-17T07:16:00;18.87;;;15.20;;
8312;SDS011;4194;43.408;24.626;2024-03-17T07:18:27;21.17;;;16.70;;
8312;SDS011;4194;43.408;24.626;2024-03-17T07:20:56;20.83;;;15.87;;
8312;SDS011;4194;43.408;24.626;2024-03-17T07:23:23;22.27;;;14.93;;
8312;SDS011;4194;43.408;24.626;2024-03-17T07:25:53;21.10;;;15.83;;
8312;SDS011;4194;43.408;24.626;2024-03-17T07:28:25;19.87;;;15.27;;
8312;SDS011;4194;43.408;24.626;2024-03-17T07:30:52;21.83;;;16.03;;
8312;SDS011;4194;43.408;24.626;2024-03-17T07:33:19;22.73;;;15.70;;
8312;SDS011;4194;43.408;24.626;2024-03-17T07:35:46;21.50;;;16.40;;
8312;SDS011;4194;43.408;24.626;2024-03-17T07:38:30;21.67;;;14.87;;
8312;SDS011;4194;43.408;24.626;2024-03-17T07:40:57;23.47;;;15.57;;
8312;SDS011;4194;43.408;24.626;2024-03-17T07:43:28;22.47;;;16.17;;
8312;SDS011;4194;43.408;24.626;2024-03-17T07:46:00;22.07;;;16.07;;
8312;SDS011;4194;43.408;24.626;2024-03-17T07:48:28;21.27;;;17.00;;
8312;SDS011;4194;43.408;24.626;2024-03-17T07:50:57;22.03;;;15.83;;
8312;SDS011;4194;43.408;24.626;2024-03-17T07:53:29;24.50;;;16.23;;
8312;SDS011;4194;43.408;24.626;2024-03-17T07:58:28;21.00;;;15.40;;
8312;SDS011;4194;43.408;24.626;2024-03-17T08:00:58;23.80;;;16.07;;
8312;SDS011;4194;43.408;24.626;2024-03-17T08:03:26;21.67;;;16.13;;
8312;SDS011;4194;43.408;24.626;2024-03-17T08:05:52;27.10;;;17.43;;
8312;SDS011;4194;43.408;24.626;2024-03-17T08:08:18;25.17;;;18.23;;
8312;SDS011;4194;43.408;24.626;2024-03-17T08:10:45;24.60;;;17.53;;
8312;SDS011;4194;43.408;24.626;2024-03-17T08:13:13;24.50;;;17.57;;
8312;SDS011;4194;43.408;24.626;2024-03-17T08:15:41;29.60;;;17.23;;
8312;SDS011;4194;43.408;24.626;2024-03-17T08:18:08;23.80;;;17.00;;
8312;SDS011;4194;43.408;24.626;2024-03-17T08:20:40;20.03;;;15.63;;
8312;SDS011;4194;43.408;24.626;2024-03-17T08:23:11;20.87;;;14.80;;
8312;SDS011;4194;43.408;24.626;2024-03-17T08:25:37;19.47;;;13.87;;
8312;SDS011;4194;43.408;24.626;2024-03-17T08:28:04;18.23;;;13.63;;
8312;SDS011;4194;43.408;24.626;2024-03-17T08:30:30;17.10;;;12.37;;
8312;SDS011;4194;43.408;24.626;2024-03-17T08:32:58;17.53;;;13.47;;
8312;SDS011;4194;43.408;24.626;2024-03-17T08:35:24;16.73;;;13.63;;
8312;SDS011;4194;43.408;24.626;2024-03-17T08:37:51;16.73;;;13.10;;
8312;SDS011;4194;43.408;24.626;2024-03-17T08:40:19;16.93;;;13.10;;
8312;SDS011;4194;43.408;24.626;2024-03-17T08:42:48;16.13;;;12.37;;
8312;SDS011;4194;43.408;24.626;2024-03-17T08:45:14;20.47;;;13.27;;
8312;SDS011;4194;43.408;24.626;2024-03-17T08:47:40;12.53;;;10.87;;
8312;SDS011;4194;43.408;24.626;2024-03-17T08:50:05;14.57;;;10.03;;
8312;SDS011;4194;43.408;24.626;2024-03-17T08:52:33;14.23;;;10.83;;
8312;SDS011;4194;43.408;24.626;2024-03-17T08:54:59;14.23;;;10.93;;
8312;SDS011;4194;43.408;24.626;2024-03-17T08:57:28;15.10;;;10.57;;
8312;SDS011;4194;43.408;24.626;2024-03-17T08:59:53;14.03;;;10.30;;
8312;SDS011;4194;43.408;24.626;2024-03-17T09:02:19;13.17;;;10.30;;
8312;SDS011;4194;43.408;24.626;2024-03-17T09:04:46;10.63;;;8.40;;
8312;SDS011;4194;43.408;24.626;2024-03-17T09:07:12;11.93;;;8.53;;
8312;SDS011;4194;43.408;24.626;2024-03-17T09:09:40;10.93;;;8.10;;
8312;SDS011;4194;43.408;24.626;2024-03-17T09:12:06;13.00;;;8.97;;
8312;SDS011;4194;43.408;24.626;2024-03-17T09:14:32;19.63;;;11.93;;
8312;SDS011;4194;43.408;24.626;2024-03-17T09:16:58;16.93;;;10.87;;
8312;SDS011;4194;43.408;24.626;2024-03-17T09:19:24;15.13;;;10.50;;
8312;SDS011;4194;43.408;24.626;2024-03-17T09:21:50;11.93;;;8.43;;
8312;SDS011;4194;43.408;24.626;2024-03-17T09:24:15;9.77;;;7.87;;
8312;SDS011;4194;43.408;24.626;2024-03-17T09:26:41;11.40;;;9.30;;
8312;SDS011;4194;43.408;24.626;2024-03-17T09:29:07;12.20;;;8.73;;
8312;SDS011;4194;43.408;24.626;2024-03-17T09:31:33;10.27;;;7.10;;
8312;SDS011;4194;43.408;24.626;2024-03-17T09:34:00;8.90;;;7.20;;
8312;SDS011;4194;43.408;24.626;2024-03-17T09:36:27;11.40;;;7.67;;
8312;SDS011;4194;43.408;24.626;2024-03-17T09:38:52;10.83;;;9.10;;
8312;SDS011;4194;43.408;24.626;2024-03-17T09:41:22;12.60;;;8.47;;
8312;SDS011;4194;43.408;24.626;2024-03-17T09:43:55;11.93;;;9.13;;
8312;SDS011;4194;43.408;24.626;2024-03-17T09:46:22;14.93;;;9.90;;
8312;SDS011;4194;43.408;24.626;2024-03-17T09:48:49;15.00;;;8.93;;
8312;SDS011;4194;43.408;24.626;2024-03-17T09:51:22;10.33;;;7.67;;
8312;SDS011;4194;43.408;24.626;2024-03-17T09:53:49;11.07;;;7.93;;
8312;SDS011;4194;43.408;24.626;2024-03-17T09:56:19;10.63;;;7.77;;
8312;SDS011;4194;43.408;24.626;2024-03-17T09:58:46;12.35;;;9.15;;
8312;SDS011;4194;43.408;24.626;2024-03-17T10:03:48;11.50;;;7.90;;
8312;SDS011;4194;43.408;24.626;2024-03-17T10:06:19;7.60;;;6.70;;
8312;SDS011;4194;43.408;24.626;2024-03-17T10:08:47;6.80;;;4.80;;
8312;SDS011;4194;43.408;24.626;2024-03-17T10:11:13;6.00;;;4.60;;
8312;SDS011;4194;43.408;24.626;2024-03-17T10:13:41;6.17;;;5.07;;
8312;SDS011;4194;43.408;24.626;2024-03-17T10:16:24;6.63;;;5.63;;
8312;SDS011;4194;43.408;24.626;2024-03-17T10:19:05;7.00;;;5.30;;
8312;SDS011;4194;43.408;24.626;2024-03-17T10:21:40;6.20;;;5.50;;
8312;SDS011;4194;43.408;24.626;2024-03-17T10:26:54;4.90;;;4.40;;
8312;SDS011;4194;43.408;24.626;2024-03-17T10:31:49;6.13;;;4.50;;
8312;SDS011;4194;43.408;24.626;2024-03-17T10:34:17;8.07;;;5.10;;
8312;SDS011;4194;43.408;24.626;2024-03-17T10:36:49;4.77;;;2.90;;
8312;SDS011;4194;43.408;24.626;2024-03-17T10:39:23;3.90;;;3.10;;
8312;SDS011;4194;43.408;24.626;2024-03-17T10:41:58;3.00;;;2.40;;
8312;SDS011;4194;43.408;24.626;2024-03-17T10:44:31;2.63;;;2.40;;
8312;SDS011;4194;43.408;24.626;2024-03-17T10:46:59;2.67;;;2.47;;
8312;SDS011;4194;43.408;24.626;2024-03-17T10:49:31;2.67;;;2.30;;
8312;SDS011;4194;43.408;24.626;2024-03-17T10:51:59;3.40;;;2.65;;
8312;SDS011;4194;43.408;24.626;2024-03-17T10:54:27;2.40;;;2.20;;
8312;SDS011;4194;43.408;24.626;2024-03-17T10:56:54;2.20;;;2.00;;
8312;SDS011;4194;43.408;24.626;2024-03-17T10:59:28;2.10;;;1.90;;
8312;SDS011;4194;43.408;24.626;2024-03-17T11:02:27;2.75;;;2.10;;
8312;SDS011;4194;43.408;24.626;2024-03-17T11:10:02;2.13;;;1.57;;
8312;SDS011;4194;43.408;24.626;2024-03-17T11:17:50;2.70;;;2.10;;
8312;SDS011;4194;43.408;24.626;2024-03-17T11:22:49;1.63;;;1.53;;
8312;SDS011;4194;43.408;24.626;2024-03-17T11:27:57;2.63;;;1.60;;
8312;SDS011;4194;43.408;24.626;2024-03-17T11:41:37;1.60;;;1.50;;
8312;SDS011;4194;43.408;24.626;2024-03-17T11:46:56;2.80;;;2.10;;
8312;SDS011;4194;43.408;24.626;2024-03-17T11:51:54;2.20;;;1.80;;
8312;SDS011;4194;43.408;24.626;2024-03-17T11:54:25;2.40;;;2.20;;
8312;SDS011;4194;43.408;24.626;2024-03-17T11:57:00;2.10;;;1.90;;
8312;SDS011;4194;43.408;24.626;2024-03-17T12:01:53;2.40;;;1.90;;
8312;SDS011;4194;43.408;24.626;2024-03-17T12:04:19;2.45;;;2.25;;
8312;SDS011;4194;43.408;24.626;2024-03-17T12:14:33;2.07;;;1.83;;
8312;SDS011;4194;43.408;24.626;2024-03-17T12:17:08;3.10;;;2.10;;
8312;SDS011;4194;43.408;24.626;2024-03-17T12:31:55;3.80;;;3.50;;
8312;SDS011;4194;43.408;24.626;2024-03-17T12:52:15;3.20;;;2.90;;
8312;SDS011;4194;43.408;24.626;2024-03-17T13:41:56;4.40;;;3.85;;
8312;SDS011;4194;43.408;24.626;2024-03-17T13:46:54;4.95;;;4.20;;
8312;SDS011;4194;43.408;24.626;2024-03-17T14:13:36;3.20;;;3.00;;
8312;SDS011;4194;43.408;24.626;2024-03-17T14:37:57;5.05;;;4.15;;
8312;SDS011;4194;43.408;24.626;2024-03-17T17:43:54;12.13;;;9.13;;
8312;SDS011;4194;43.408;24.626;2024-03-17T17:46:20;9.00;;;8.10;;
8312;SDS011;4194;43.408;24.626;2024-03-17T17:48:51;9.43;;;7.43;;
8312;SDS011;4194;43.408;24.626;2024-03-17T17:51:18;11.53;;;8.20;;
8312;SDS011;4194;43.408;24.626;2024-03-17T17:53:45;9.40;;;7.40;;
8312;SDS011;4194;43.408;24.626;2024-03-17T17:56:12;10.45;;;7.85;;
8312;SDS011;4194;43.408;24.626;2024-03-17T17:58:40;8.90;;;8.00;;
8312;SDS011;4194;43.408;24.626;2024-03-17T18:01:10;11.40;;;9.10;;
8312;SDS011;4194;43.408;24.626;2024-03-17T18:10:55;15.50;;;12.40;;
8312;SDS011;4194;43.408;24.626;2024-03-17T18:15:55;20.00;;;14.33;;
8312;SDS011;4194;43.408;24.626;2024-03-17T18:18:24;19.70;;;14.73;;
8312;SDS011;4194;43.408;24.626;2024-03-17T18:20:51;15.73;;;13.87;;
8312;SDS011;4194;43.408;24.626;2024-03-17T18:23:21;16.37;;;14.60;;
8312;SDS011;4194;43.408;24.626;2024-03-17T18:30:39;13.37;;;11.80;;
8312;SDS011;4194;43.408;24.626;2024-03-17T18:33:05;18.23;;;13.67;;
8312;SDS011;4194;43.408;24.626;2024-03-17T18:35:31;15.23;;;11.70;;
8312;SDS011;4194;43.408;24.626;2024-03-17T18:37:59;15.70;;;12.20;;
8312;SDS011;4194;43.408;24.626;2024-03-17T18:40:30;12.70;;;10.60;;
8312;SDS011;4194;43.408;24.626;2024-03-17T18:42:56;15.10;;;10.03;;
8312;SDS011;4194;43.408;24.626;2024-03-17T18:45:22;14.43;;;10.57;;
8312;SDS011;4194;43.408;24.626;2024-03-17T18:47:48;14.20;;;10.10;;
8312;SDS011;4194;43.408;24.626;2024-03-17T18:50:17;12.77;;;9.87;;
8312;SDS011;4194;43.408;24.626;2024-03-17T18:52:44;14.93;;;10.50;;
8312;SDS011;4194;43.408;24.626;2024-03-17T18:55:12;11.23;;;9.87;;
8312;SDS011;4194;43.408;24.626;2024-03-17T18:57:38;13.10;;;10.57;;
8312;SDS011;4194;43.408;24.626;2024-03-17T19:00:04;12.07;;;9.90;;
8312;SDS011;4194;43.408;24.626;2024-03-17T19:02:37;14.43;;;11.40;;
8312;SDS011;4194;43.408;24.626;2024-03-17T19:05:02;14.17;;;10.90;;
8312;SDS011;4194;43.408;24.626;2024-03-17T19:07:29;13.17;;;10.47;;
8312;SDS011;4194;43.408;24.626;2024-03-17T19:09:55;11.43;;;9.47;;
8312;SDS011;4194;43.408;24.626;2024-03-17T19:12:21;13.47;;;10.80;;
8312;SDS011;4194;43.408;24.626;2024-03-17T19:14:50;12.20;;;10.37;;
8312;SDS011;4194;43.408;24.626;2024-03-17T19:17:16;13.93;;;11.13;;
8312;SDS011;4194;43.408;24.626;2024-03-17T19:19:42;11.60;;;10.07;;
8312;SDS011;4194;43.408;24.626;2024-03-17T19:22:08;16.90;;;10.37;;
8312;SDS011;4194;43.408;24.626;2024-03-17T19:24:34;11.77;;;10.03;;
8312;SDS011;4194;43.408;24.626;2024-03-17T19:27:04;16.90;;;9.93;;
8312;SDS011;4194;43.408;24.626;2024-03-17T19:29:30;14.20;;;11.07;;
8312;SDS011;4194;43.408;24.626;2024-03-17T19:31:56;15.23;;;11.40;;
8312;SDS011;4194;43.408;24.626;2024-03-17T19:34:22;17.20;;;11.90;;
8312;SDS011;4194;43.408;24.626;2024-03-17T19:36:48;13.40;;;11.20;;
8312;SDS011;4194;43.408;24.626;2024-03-17T19:39:14;14.60;;;11.35;;
8312;SDS011;4194;43.408;24.626;2024-03-17T19:41:45;15.60;;;11.40;;
8312;SDS011;4194;43.408;24.626;2024-03-17T19:44:11;13.75;;;11.65;;
8312;SDS011;4194;43.408;24.626;2024-03-17T19:49:05;12.90;;;11.50;;
8312;SDS011;4194;43.408;24.626;2024-03-17T19:53:57;16.87;;;11.17;;
8312;SDS011;4194;43.408;24.626;2024-03-17T19:56:23;13.73;;;10.17;;
8312;SDS011;4194;43.408;24.626;2024-03-17T19:58:50;13.23;;;10.43;;
8312;SDS011;4194;43.408;24.626;2024-03-17T20:01:18;11.30;;;10.17;;
8312;SDS011;4194;43.408;24.626;2024-03-17T20:03:45;12.00;;;9.67;;
8312;SDS011;4194;43.408;24.626;2024-03-17T20:06:22;14.90;;;10.77;;
8312;SDS011;4194;43.408;24.626;2024-03-17T20:08:49;16.73;;;9.93;;
8312;SDS011;4194;43.408;24.626;2024-03-17T20:11:15;14.10;;;10.47;;
8312;SDS011;4194;43.408;24.626;2024-03-17T20:13:43;11.80;;;9.83;;
8312;SDS011;4194;43.408;24.626;2024-03-17T20:16:16;13.97;;;9.87;;
8312;SDS011;4194;43.408;24.626;2024-03-17T20:18:45;13.53;;;10.70;;
8312;SDS011;4194;43.408;24.626;2024-03-17T20:21:12;15.65;;;11.60;;
8312;SDS011;4194;43.408;24.626;2024-03-17T20:23:37;11.90;;;10.60;;
8312;SDS011;4194;43.408;24.626;2024-03-17T20:26:03;13.60;;;10.97;;
8312;SDS011;4194;43.408;24.626;2024-03-17T20:28:32;16.40;;;12.30;;
8312;SDS011;4194;43.408;24.626;2024-03-17T20:30:57;12.40;;;10.70;;
8312;SDS011;4194;43.408;24.626;2024-03-17T20:33:23;14.53;;;11.23;;
8312;SDS011;4194;43.408;24.626;2024-03-17T20:35:49;16.60;;;11.77;;
8312;SDS011;4194;43.408;24.626;2024-03-17T20:38:15;13.43;;;11.07;;
8312;SDS011;4194;43.408;24.626;2024-03-17T20:40:41;13.07;;;10.90;;
8312;SDS011;4194;43.408;24.626;2024-03-17T20:43:07;14.63;;;10.93;;
8312;SDS011;4194;43.408;24.626;2024-03-17T20:45:33;14.30;;;10.57;;
8312;SDS011;4194;43.408;24.626;2024-03-17T20:48:00;11.93;;;10.37;;
8312;SDS011;4194;43.408;24.626;2024-03-17T20:50:26;13.27;;;10.53;;
8312;SDS011;4194;43.408;24.626;2024-03-17T21:56:36;7.70;;;6.70;;
8312;SDS011;4194;43.408;24.626;2024-03-17T22:13:40;6.75;;;6.00;;
